Terminal Aerodrome Forecast
Issued by NWS Detroit/Pontiac, MI

Home | Current Version | Previous Version | Text Only | Print | Product List | Glossary On
Versions: 1 2 3 4 5 6 7 8 9 10 11 12 13 14 15 16
000
FTUS43 KDTX 292106 AAA
TAFFNT
TAF AMD
KFNT 292106Z 2921/3018 04010KT 3SM RA OVC010
     FM300200 04010KT 6SM -SHRA BR OVC010
     FM301500 05012KT 6SM -SHRA BKN012 OVC025=

USA.gov is the U.S. government's official web portal to all federal, state and local government web resources and services.